Time;durP1;ratioP1;P1;durP2;ratioP2;P2;SDS_P1;SDS_P2;PMS_P1;PMS_P2;Temp;Humidity;BMP_temperature;BMP_pressure;BME280_temperature;BME280_humidity;BME280_pressure;Samples;Min_cycle;Max_cycle;Signal;HPM_P1;HPM_P2
2022/07/10 00:00:11;;;;;;;;;;;16.50;99.90;;;;;;5088613;28;19931;-54
2022/07/10 00:02:41;;;;;;;;;;;16.40;99.90;;;;;;5088906;28;19924;-55
2022/07/10 00:05:10;;;;;;;;;;;16.40;99.90;;;;;;5088641;28;19927;-55
2022/07/10 00:07:46;;;;;;;;;;;16.40;99.90;;;;;;5089246;28;19931;-55
2022/07/10 00:10:13;;;;;;;;;;;16.20;99.90;;;;;;5071223;28;20379;-56
2022/07/10 00:12:41;;;;;;;;;;;16.20;99.90;;;;;;5088566;28;19927;-58
2022/07/10 00:15:08;;;;;;;;;;;16.20;99.90;;;;;;5086488;28;19927;-59
2022/07/10 00:17:38;;;;;;;;;;;16.20;99.90;;;;;;5087902;28;19920;-59
2022/07/10 00:20:06;;;;;;;;;;;16.10;99.90;;;;;;5088342;28;19920;-60
2022/07/10 00:22:34;;;;;;;;;;;16.20;99.90;;;;;;5088882;28;19920;-59
2022/07/10 00:25:02;;;;;;;;;;;16.10;99.90;;;;;;5088252;28;19927;-58
2022/07/10 00:27:30;;;;;;;;;;;16.10;99.90;;;;;;5087391;28;19920;-60
2022/07/10 00:29:57;;;;;;;;;;;16.10;99.90;;;;;;5086317;28;19920;-61
2022/07/10 00:32:25;;;;;;;;;;;16.10;99.90;;;;;;5087988;28;19927;-64
2022/07/10 00:34:52;;;;;;;;;;;16.10;99.90;;;;;;5091785;28;19920;-60
2022/07/10 00:37:23;;;;;;;;;;;16.10;99.90;;;;;;5091001;28;19920;-59
2022/07/10 00:39:50;;;;;;;;;;;16.00;99.90;;;;;;5090561;28;20363;-61
2022/07/10 00:42:17;;;;;;;;;;;16.10;99.90;;;;;;5091959;28;19927;-57
2022/07/10 00:44:45;;;;;;;;;;;16.10;99.90;;;;;;5091607;28;19924;-56
2022/07/10 00:47:14;;;;;;;;;;;16.10;99.90;;;;;;5092015;28;20129;-55
2022/07/10 00:49:41;;;;;;;;;;;16.10;99.90;;;;;;5091254;28;19924;-55
2022/07/10 00:52:12;;;;;;;;;;;16.10;99.90;;;;;;5092232;28;19919;-55
2022/07/10 00:54:42;;;;;;;;;;;16.20;99.90;;;;;;5093228;28;20382;-55
2022/07/10 00:57:09;;;;;;;;;;;16.20;99.90;;;;;;5091862;28;20385;-55
2022/07/10 00:59:37;;;;;;;;;;;16.20;99.90;;;;;;5091130;28;20422;-59
2022/07/10 01:02:05;;;;;;;;;;;16.20;99.90;;;;;;5090193;28;19920;-61
2022/07/10 01:04:33;;;;;;;;;;;16.20;99.90;;;;;;5088161;28;20304;-60
2022/07/10 01:07:01;;;;;;;;;;;16.20;99.90;;;;;;5089368;28;19927;-60
2022/07/10 01:09:31;;;;;;;;;;;16.10;99.90;;;;;;5090282;28;19920;-59
2022/07/10 01:12:02;;;;;;;;;;;16.10;99.90;;;;;;5091422;28;20397;-59
2022/07/10 01:14:30;;;;;;;;;;;16.10;99.90;;;;;;5091132;28;20428;-56
2022/07/10 01:16:58;;;;;;;;;;;16.10;99.90;;;;;;5090175;28;19920;-59
2022/07/10 01:19:25;;;;;;;;;;;16.10;99.90;;;;;;5090920;28;19931;-55
2022/07/10 01:21:53;;;;;;;;;;;16.10;99.90;;;;;;5091438;28;20287;-54
2022/07/10 01:24:20;;;;;;;;;;;16.20;99.90;;;;;;5090937;28;20375;-59
2022/07/10 01:26:48;;;;;;;;;;;16.20;99.90;;;;;;5089815;28;19975;-57
2022/07/10 01:29:15;;;;;;;;;;;16.20;99.90;;;;;;5090772;28;20144;-60
2022/07/10 01:31:43;;;;;;;;;;;16.30;99.90;;;;;;5093691;28;20398;-56
2022/07/10 01:34:10;;;;;;;;;;;16.30;99.90;;;;;;5093538;28;20398;-58
2022/07/10 01:36:38;;;;;;;;;;;16.30;99.90;;;;;;5092931;28;20367;-56
2022/07/10 01:39:06;;;;;;;;;;;16.30;99.90;;;;;;5093878;28;20299;-55
2022/07/10 01:41:34;;;;;;;;;;;16.30;99.90;;;;;;5094225;28;19920;-58
2022/07/10 01:44:02;;;;;;;;;;;16.30;99.90;;;;;;5093883;28;20375;-55
2022/07/10 01:46:29;;;;;;;;;;;16.30;99.90;;;;;;5103583;28;19919;-54
2022/07/10 01:48:57;;;;;;;;;;;16.30;99.90;;;;;;5114411;28;19920;-57
2022/07/10 01:51:24;;;;;;;;;;;16.30;99.90;;;;;;5114099;28;19927;-55
2022/07/10 01:53:52;;;;;;;;;;;16.30;99.90;;;;;;5114201;28;19920;-56
2022/07/10 01:56:19;;;;;;;;;;;16.30;99.90;;;;;;5114262;28;19919;-56
2022/07/10 01:58:46;;;;;;;;;;;16.30;99.90;;;;;;5113703;28;19924;-55
2022/07/10 02:01:14;;;;;;;;;;;16.40;99.90;;;;;;5113905;28;19926;-55
2022/07/10 02:06:27;;;;;;;;;;;16.40;99.90;;;;;;5113885;28;19919;-54
2022/07/10 02:08:55;;;;;;;;;;;16.40;99.90;;;;;;5112611;28;19919;-55
2022/07/10 02:11:22;;;;;;;;;;;16.40;99.90;;;;;;5112526;28;19927;-55
2022/07/10 02:13:50;;;;;;;;;;;16.30;99.90;;;;;;5113439;28;19926;-54
2022/07/10 02:16:17;;;;;;;;;;;16.30;99.90;;;;;;5113827;28;19927;-55
2022/07/10 02:18:45;;;;;;;;;;;16.30;99.90;;;;;;5113752;28;19920;-54
2022/07/10 02:21:12;;;;;;;;;;;16.30;99.90;;;;;;5113618;28;20282;-54
2022/07/10 02:23:40;;;;;;;;;;;16.30;99.90;;;;;;5113674;28;20370;-54
2022/07/10 02:26:08;;;;;;;;;;;16.30;99.90;;;;;;5113622;28;19942;-54
2022/07/10 02:28:36;;;;;;;;;;;16.30;99.90;;;;;;5113477;28;19924;-54
2022/07/10 02:31:04;;;;;;;;;;;16.30;99.90;;;;;;5113468;28;19926;-54
2022/07/10 02:33:31;;;;;;;;;;;16.30;99.90;;;;;;5113587;28;20371;-54
2022/07/10 02:35:58;;;;;;;;;;;16.30;99.90;;;;;;5113865;28;20538;-54
2022/07/10 02:38:27;;;;;;;;;;;16.30;99.90;;;;;;5113653;28;19931;-58
2022/07/10 02:40:54;;;;;;;;;;;16.30;99.90;;;;;;5113024;28;19920;-59
2022/07/10 02:43:22;;;;;;;;;;;16.20;99.90;;;;;;5113364;28;20306;-59
2022/07/10 02:45:49;;;;;;;;;;;16.20;99.90;;;;;;5111977;28;19926;-61
2022/07/10 02:48:18;;;;;;;;;;;16.20;99.90;;;;;;5111878;28;19920;-61
2022/07/10 02:50:45;;;;;;;;;;;16.10;99.90;;;;;;5112329;28;19919;-60
2022/07/10 02:53:12;;;;;;;;;;;16.10;99.90;;;;;;5112292;28;19919;-60
2022/07/10 02:55:40;;;;;;;;;;;16.20;99.90;;;;;;5113116;28;19920;-60
2022/07/10 02:58:09;;;;;;;;;;;16.10;99.90;;;;;;5112126;28;19920;-60
2022/07/10 03:00:37;;;;;;;;;;;16.10;99.90;;;;;;5112802;28;19951;-60
2022/07/10 03:03:04;;;;;;;;;;;16.10;99.90;;;;;;5112977;28;19926;-60
2022/07/10 03:05:32;;;;;;;;;;;16.20;99.90;;;;;;5113003;28;19919;-60
2022/07/10 03:07:59;;;;;;;;;;;16.20;99.90;;;;;;5112825;28;19920;-59
2022/07/10 03:10:26;;;;;;;;;;;16.20;99.90;;;;;;5112814;28;19942;-57
2022/07/10 03:12:54;;;;;;;;;;;16.20;99.90;;;;;;5112889;28;19919;-59
2022/07/10 03:15:21;;;;;;;;;;;16.20;99.90;;;;;;5111436;28;20322;-60
2022/07/10 03:17:49;;;;;;;;;;;16.20;99.90;;;;;;5112764;28;19927;-59
2022/07/10 03:20:16;;;;;;;;;;;16.20;99.90;;;;;;5112583;28;20334;-60
2022/07/10 03:22:44;;;;;;;;;;;16.20;99.90;;;;;;5112536;28;19919;-62
2022/07/10 03:25:12;;;;;;;;;;;16.20;99.90;;;;;;5112503;28;19926;-61
2022/07/10 03:27:40;;;;;;;;;;;16.20;99.90;;;;;;5112635;28;20401;-61
2022/07/10 03:30:08;;;;;;;;;;;16.20;99.90;;;;;;5112709;28;20363;-60
2022/07/10 03:32:36;;;;;;;;;;;16.20;99.90;;;;;;5112538;28;20123;-60
2022/07/10 03:35:04;;;;;;;;;;;16.20;99.90;;;;;;5112854;28;19927;-61
2022/07/10 03:37:31;;;;;;;;;;;16.20;99.90;;;;;;5112683;28;19934;-62
2022/07/10 03:39:59;;;;;;;;;;;16.20;99.90;;;;;;5112864;28;20266;-55
2022/07/10 03:42:26;;;;;;;;;;;16.20;99.90;;;;;;5112470;28;20310;-55
2022/07/10 03:44:53;;;;;;;;;;;16.20;99.90;;;;;;5112255;28;19926;-55
2022/07/10 03:47:21;;;;;;;;;;;16.20;99.90;;;;;;5112444;28;19927;-54
2022/07/10 03:49:48;;;;;;;;;;;16.20;99.90;;;;;;5112289;28;19920;-54
2022/07/10 03:52:16;;;;;;;;;;;16.20;99.90;;;;;;5112319;28;19919;-55
2022/07/10 03:54:43;;;;;;;;;;;16.20;99.90;;;;;;5112389;28;19920;-54
2022/07/10 03:59:57;;;;;;;;;;;16.20;99.90;;;;;;5112331;28;19924;-54
2022/07/10 04:02:24;;;;;;;;;;;16.20;99.90;;;;;;5111022;28;19939;-54
2022/07/10 04:04:51;;;;;;;;;;;16.20;99.90;;;;;;5112172;28;19924;-54
2022/07/10 04:07:19;;;;;;;;;;;16.10;99.90;;;;;;5112235;28;19926;-54
2022/07/10 04:09:46;;;;;;;;;;;16.10;99.90;;;;;;5115933;28;19923;-56
2022/07/10 04:12:14;;;;;;;;;;;16.10;99.90;;;;;;5116174;28;19920;-56
2022/07/10 04:14:41;;;;;;;;;;;16.10;99.90;;;;;;5116053;28;19926;-54
2022/07/10 04:17:09;;;;;;;;;;;16.00;99.90;;;;;;5116052;28;19927;-55
2022/07/10 04:19:36;;;;;;;;;;;16.00;99.90;;;;;;5115445;28;20387;-55
2022/07/10 04:22:03;;;;;;;;;;;15.90;99.90;;;;;;5115874;28;19920;-56
2022/07/10 04:24:31;;;;;;;;;;;15.90;99.90;;;;;;5115968;28;19926;-56
2022/07/10 04:26:58;;;;;;;;;;;15.80;99.90;;;;;;5115437;28;20398;-54
2022/07/10 04:29:25;;;;;;;;;;;15.80;99.90;;;;;;5115899;28;19926;-56
2022/07/10 04:31:53;;;;;;;;;;;15.70;99.90;;;;;;5115706;28;19941;-55
2022/07/10 04:34:20;;;;;;;;;;;15.60;99.90;;;;;;5115786;28;19986;-54
2022/07/10 04:36:47;;;;;;;;;;;15.60;99.90;;;;;;5115891;28;19920;-54
2022/07/10 04:39:15;;;;;;;;;;;15.60;99.90;;;;;;5115938;28;19919;-57
2022/07/10 04:41:42;;;;;;;;;;;15.50;99.90;;;;;;5115570;28;20025;-55
2022/07/10 04:44:10;;;;;;;;;;;15.50;99.90;;;;;;5115587;28;19920;-55
2022/07/10 04:46:37;;;;;;;;;;;15.50;99.90;;;;;;5115613;28;19919;-55
2022/07/10 04:49:07;;;;;;;;;;;15.50;99.90;;;;;;5094596;27;19924;-55
2022/07/10 04:51:35;;;;;;;;;;;15.50;99.90;;;;;;5091851;28;19923;-55
2022/07/10 04:54:02;;;;;;;;;;;15.50;99.90;;;;;;5091935;28;20115;-55
2022/07/10 04:56:30;;;;;;;;;;;15.50;99.90;;;;;;5091711;28;19924;-56
2022/07/10 04:58:57;;;;;;;;;;;15.40;99.90;;;;;;5091436;28;19931;-55
2022/07/10 05:01:24;;;;;;;;;;;15.40;99.90;;;;;;5091613;28;19920;-54
2022/07/10 05:03:52;;;;;;;;;;;15.40;99.90;;;;;;5087936;28;19920;-55
2022/07/10 05:06:19;;;;;;;;;;;15.40;99.90;;;;;;5088291;28;20406;-55
2022/07/10 05:08:47;;;;;;;;;;;15.40;99.90;;;;;;5088128;28;19928;-58
2022/07/10 05:11:14;;;;;;;;;;;15.30;99.90;;;;;;5088095;28;19954;-60
2022/07/10 05:13:46;;;;;;;;;;;15.30;99.90;;;;;;5087783;28;20287;-57
2022/07/10 05:16:14;;;;;;;;;;;15.40;99.90;;;;;;5088992;28;20401;-59
2022/07/10 05:18:46;;;;;;;;;;;15.40;99.90;;;;;;5091532;28;19924;-58
2022/07/10 05:21:14;;;;;;;;;;;15.40;99.90;;;;;;5089202;28;19931;-57
2022/07/10 05:23:42;;;;;;;;;;;15.60;99.90;;;;;;5090810;28;19931;-59
2022/07/10 05:26:09;;;;;;;;;;;15.60;99.90;;;;;;5089637;28;19919;-57
2022/07/10 05:28:36;;;;;;;;;;;15.70;99.90;;;;;;5089926;28;19927;-60
2022/07/10 05:31:04;;;;;;;;;;;15.70;99.90;;;;;;5090293;28;19927;-59
2022/07/10 05:33:32;;;;;;;;;;;15.80;99.90;;;;;;5090246;28;19931;-57
2022/07/10 05:35:59;;;;;;;;;;;15.90;99.90;;;;;;5106544;28;20284;-58
2022/07/10 05:38:27;;;;;;;;;;;16.00;99.90;;;;;;5095206;28;20294;-60
2022/07/10 05:40:54;;;;;;;;;;;16.00;99.90;;;;;;5086258;28;20363;-59
2022/07/10 05:43:22;;;;;;;;;;;16.10;99.90;;;;;;5090771;28;19920;-58
2022/07/10 05:45:49;;;;;;;;;;;16.10;99.90;;;;;;5090868;28;20279;-59
2022/07/10 05:48:25;;;;;;;;;;;16.20;99.90;;;;;;5090448;28;19927;-55
2022/07/10 05:50:52;;;;;;;;;;;16.20;99.90;;;;;;5090760;28;20073;-60
2022/07/10 05:53:19;;;;;;;;;;;16.20;99.90;;;;;;5090400;28;19920;-60
2022/07/10 05:55:48;;;;;;;;;;;16.20;99.90;;;;;;5090439;28;19920;-59
2022/07/10 05:58:16;;;;;;;;;;;16.30;99.90;;;;;;5090293;28;19920;-60
2022/07/10 06:00:44;;;;;;;;;;;16.30;99.90;;;;;;5089554;28;19919;-60
2022/07/10 06:03:11;;;;;;;;;;;16.40;99.90;;;;;;5086858;28;19920;-59
2022/07/10 06:05:39;;;;;;;;;;;16.40;99.90;;;;;;5087353;28;19924;-58
2022/07/10 06:08:07;;;;;;;;;;;16.40;99.90;;;;;;5090224;28;19920;-59
2022/07/10 06:10:34;;;;;;;;;;;16.40;99.90;;;;;;5090394;28;19939;-60
2022/07/10 06:13:01;;;;;;;;;;;16.40;99.90;;;;;;5090021;28;19920;-57
2022/07/10 06:15:29;;;;;;;;;;;16.30;99.90;;;;;;5089962;28;19924;-61
2022/07/10 06:17:57;;;;;;;;;;;16.30;99.90;;;;;;5090235;28;19920;-60
2022/07/10 06:20:25;;;;;;;;;;;16.30;99.90;;;;;;5088948;28;19920;-60
2022/07/10 06:22:53;;;;;;;;;;;16.20;99.90;;;;;;5088576;28;20398;-60
2022/07/10 06:25:21;;;;;;;;;;;16.20;99.90;;;;;;5089681;28;19927;-59
2022/07/10 06:27:48;;;;;;;;;;;16.20;99.90;;;;;;5089742;28;20390;-60
2022/07/10 06:30:16;;;;;;;;;;;16.10;99.90;;;;;;5090025;28;19920;-64
2022/07/10 06:32:44;;;;;;;;;;;16.10;99.90;;;;;;5089679;28;20386;-65
2022/07/10 06:35:11;;;;;;;;;;;16.10;99.90;;;;;;5090435;28;19920;-58
2022/07/10 06:37:39;;;;;;;;;;;16.00;99.90;;;;;;5093673;28;20337;-58
2022/07/10 06:40:07;;;;;;;;;;;16.10;99.90;;;;;;5110352;28;19920;-58
2022/07/10 06:42:34;;;;;;;;;;;16.10;99.90;;;;;;5110021;28;19920;-55
2022/07/10 06:45:10;;;;;;;;;;;16.10;99.90;;;;;;5091855;28;19919;-59
2022/07/10 06:47:56;;;;;;;;;;;16.20;99.90;;;;;;5108301;28;19946;-54
2022/07/10 06:50:26;;;;;;;;;;;16.20;99.90;;;;;;5108835;28;20378;-54
2022/07/10 06:52:53;;;;;;;;;;;16.20;99.90;;;;;;5100429;28;20299;-55
2022/07/10 06:55:21;;;;;;;;;;;16.20;99.90;;;;;;5089411;28;19927;-57
2022/07/10 06:57:48;;;;;;;;;;;16.20;99.90;;;;;;5087873;28;19920;-55
2022/07/10 07:00:16;;;;;;;;;;;16.30;99.90;;;;;;5089445;28;19920;-55
2022/07/10 07:02:44;;;;;;;;;;;16.30;99.90;;;;;;5085690;28;19926;-55
2022/07/10 07:05:11;;;;;;;;;;;16.40;99.90;;;;;;5086294;28;19920;-57
2022/07/10 07:07:39;;;;;;;;;;;16.40;99.90;;;;;;5091488;28;19920;-54
2022/07/10 07:10:07;;;;;;;;;;;16.50;99.90;;;;;;5109514;28;19927;-56
2022/07/10 07:12:35;;;;;;;;;;;16.50;99.90;;;;;;5107835;28;20094;-55
2022/07/10 07:15:02;;;;;;;;;;;16.50;99.90;;;;;;5104931;28;19919;-56
2022/07/10 07:17:46;;;;;;;;;;;16.50;99.90;;;;;;5087852;28;19935;-55
2022/07/10 07:23:12;;;;;;;;;;;16.60;99.90;;;;;;5087519;28;19920;-54
2022/07/10 07:25:41;;;;;;;;;;;16.70;99.90;;;;;;5088969;28;19920;-55
2022/07/10 07:28:12;;;;;;;;;;;16.70;99.90;;;;;;5088976;28;19920;-54
2022/07/10 07:30:39;;;;;;;;;;;16.80;99.90;;;;;;5088963;28;19939;-55
2022/07/10 07:33:07;;;;;;;;;;;16.80;99.90;;;;;;5088938;28;19920;-54
2022/07/10 07:35:35;;;;;;;;;;;16.90;99.90;;;;;;5088508;28;19920;-55
2022/07/10 07:38:03;;;;;;;;;;;16.90;99.90;;;;;;5089059;28;19927;-60
2022/07/10 07:40:30;;;;;;;;;;;17.00;99.90;;;;;;5088680;28;19931;-59
2022/07/10 07:42:58;;;;;;;;;;;17.00;99.90;;;;;;5090530;28;19928;-57
2022/07/10 07:45:26;;;;;;;;;;;17.10;99.90;;;;;;5094418;28;19924;-58
2022/07/10 07:47:59;;;;;;;;;;;17.10;99.90;;;;;;5095303;28;19931;-59
2022/07/10 07:50:28;;;;;;;;;;;17.20;99.90;;;;;;5094568;28;19920;-60
2022/07/10 07:52:56;;;;;;;;;;;17.20;99.90;;;;;;5094063;28;19924;-56
2022/07/10 07:55:24;;;;;;;;;;;17.30;99.90;;;;;;5095397;28;19936;-60
2022/07/10 07:57:53;;;;;;;;;;;17.40;99.90;;;;;;5095217;28;19927;-60
2022/07/10 08:00:22;;;;;;;;;;;17.40;99.90;;;;;;5093929;28;19919;-61
2022/07/10 08:02:50;;;;;;;;;;;17.50;99.90;;;;;;5095198;28;19924;-56
2022/07/10 08:05:18;;;;;;;;;;;17.50;99.90;;;;;;5094517;28;19928;-59
2022/07/10 08:07:47;;;;;;;;;;;17.50;99.90;;;;;;5079426;28;19920;-61
2022/07/10 08:10:16;;;;;;;;;;;17.60;99.90;;;;;;5095647;28;19924;-59
2022/07/10 08:12:45;;;;;;;;;;;17.80;99.90;;;;;;5095236;28;19927;-59
2022/07/10 08:15:14;;;;;;;;;;;17.70;99.90;;;;;;5095163;28;19955;-60
2022/07/10 08:17:41;;;;;;;;;;;17.80;99.90;;;;;;5094033;28;19928;-61
2022/07/10 08:20:12;;;;;;;;;;;17.80;99.90;;;;;;5095203;28;20371;-62
2022/07/10 08:22:40;;;;;;;;;;;17.90;99.90;;;;;;5093411;28;19931;-61
2022/07/10 08:25:08;;;;;;;;;;;18.00;99.90;;;;;;5076864;28;19931;-57
2022/07/10 08:27:36;;;;;;;;;;;18.10;99.90;;;;;;5095078;28;19995;-60
2022/07/10 08:30:04;;;;;;;;;;;18.10;99.90;;;;;;5095316;28;19920;-60
2022/07/10 08:32:32;;;;;;;;;;;18.20;99.90;;;;;;5090539;28;20279;-61
2022/07/10 08:34:59;;;;;;;;;;;18.20;99.90;;;;;;5092109;28;19943;-60
2022/07/10 08:37:27;;;;;;;;;;;18.30;99.90;;;;;;5094278;28;19920;-60
2022/07/10 08:39:54;;;;;;;;;;;18.30;99.90;;;;;;5095080;28;19928;-60
2022/07/10 08:42:22;;;;;;;;;;;18.40;99.90;;;;;;5094829;28;20314;-56
2022/07/10 08:44:51;;;;;;;;;;;18.50;99.90;;;;;;5094993;28;19920;-60
2022/07/10 08:47:20;;;;;;;;;;;18.50;99.90;;;;;;5094913;28;19920;-60
2022/07/10 08:49:48;;;;;;;;;;;18.60;99.90;;;;;;5095458;28;19923;-60
2022/07/10 08:52:27;;;;;;;;;;;18.70;99.90;;;;;;5094597;28;19920;-61
2022/07/10 08:54:55;;;;;;;;;;;18.80;99.90;;;;;;5093332;28;19924;-56
2022/07/10 08:57:23;;;;;;;;;;;18.80;99.90;;;;;;5091545;28;19927;-61
2022/07/10 08:59:51;;;;;;;;;;;18.90;99.90;;;;;;5090479;28;19943;-60
2022/07/10 09:02:18;;;;;;;;;;;19.00;99.90;;;;;;5090302;28;19924;-61
2022/07/10 09:04:46;;;;;;;;;;;19.00;99.90;;;;;;5091704;28;19924;-62
2022/07/10 09:07:13;;;;;;;;;;;19.10;99.90;;;;;;5091432;28;20284;-60
2022/07/10 09:09:54;;;;;;;;;;;19.20;99.90;;;;;;5091040;28;20398;-58
2022/07/10 09:12:22;;;;;;;;;;;19.20;99.90;;;;;;5091192;28;19932;-59
2022/07/10 09:14:51;;;;;;;;;;;19.40;99.90;;;;;;5073412;28;19927;-57
2022/07/10 09:17:18;;;;;;;;;;;19.40;99.90;;;;;;5091130;28;19955;-58
2022/07/10 09:19:46;;;;;;;;;;;19.50;99.90;;;;;;5091626;28;19927;-59
2022/07/10 09:22:17;;;;;;;;;;;19.60;99.90;;;;;;5090910;28;19927;-58
2022/07/10 09:24:45;;;;;;;;;;;19.70;99.90;;;;;;5091178;28;19920;-60
2022/07/10 09:27:14;;;;;;;;;;;19.80;99.90;;;;;;5091089;28;19927;-59
2022/07/10 09:29:54;;;;;;;;;;;19.80;99.90;;;;;;5091100;28;20310;-61
2022/07/10 09:32:22;;;;;;;;;;;19.90;99.90;;;;;;5090968;28;19990;-60
2022/07/10 09:36:04;;;;;;;;;;;20.10;99.90;;;;;;5089617;28;19927;-57
2022/07/10 09:37:42;;;;;;;;;;;20.30;99.90;;;;;;5089119;28;20375;-61
2022/07/10 09:40:09;;;;;;;;;;;20.40;99.90;;;;;;5090667;28;19920;-58
2022/07/10 09:42:44;;;;;;;;;;;20.50;99.90;;;;;;5089610;28;19924;-56
2022/07/10 09:45:17;;;;;;;;;;;20.60;99.90;;;;;;5090537;28;19920;-55
2022/07/10 09:47:48;;;;;;;;;;;20.70;99.90;;;;;;5090400;28;19927;-55
2022/07/10 09:50:22;;;;;;;;;;;20.80;99.90;;;;;;5090546;28;19920;-56
2022/07/10 09:52:52;;;;;;;;;;;20.90;99.90;;;;;;5090836;28;20286;-56
2022/07/10 09:55:20;;;;;;;;;;;21.00;99.90;;;;;;5090374;28;19924;-55
2022/07/10 09:57:52;;;;;;;;;;;21.00;99.90;;;;;;5089238;28;19920;-56
2022/07/10 10:00:21;;;;;;;;;;;21.20;99.90;;;;;;5090877;28;20710;-55
2022/07/10 10:02:49;;;;;;;;;;;21.30;99.90;;;;;;5090775;28;19956;-55
2022/07/10 10:05:17;;;;;;;;;;;21.40;99.90;;;;;;5091266;28;19924;-56
2022/07/10 10:07:45;;;;;;;;;;;21.60;99.90;;;;;;5089516;28;20360;-61
2022/07/10 10:10:13;;;;;;;;;;;21.70;99.90;;;;;;5090383;28;20291;-60
2022/07/10 10:12:47;;;;;;;;;;;21.80;99.90;;;;;;5090052;28;19927;-60
2022/07/10 10:15:16;;;;;;;;;;;22.00;99.90;;;;;;5090031;28;19931;-59
2022/07/10 10:17:44;;;;;;;;;;;22.20;99.90;;;;;;5089759;28;19924;-58
2022/07/10 10:23:00;;;;;;;;;;;22.40;99.50;;;;;;5090121;28;19924;-58
2022/07/10 10:25:28;;;;;;;;;;;22.50;98.80;;;;;;5088615;28;19919;-57
2022/07/10 10:27:56;;;;;;;;;;;22.50;98.40;;;;;;5088424;28;19920;-57
2022/07/10 10:30:23;;;;;;;;;;;22.60;98.50;;;;;;5090440;28;20394;-60
2022/07/10 10:32:50;;;;;;;;;;;22.70;98.60;;;;;;5094836;28;19997;-58
2022/07/10 10:35:37;;;;;;;;;;;22.80;98.00;;;;;;5106038;28;19920;-60
2022/07/10 10:38:04;;;;;;;;;;;22.80;97.90;;;;;;5089775;28;20287;-61
2022/07/10 10:40:32;;;;;;;;;;;22.90;97.10;;;;;;5089519;28;19920;-60
2022/07/10 10:43:19;;;;;;;;;;;22.90;96.90;;;;;;5071167;28;19939;-59
2022/07/10 10:45:47;;;;;;;;;;;23.00;97.10;;;;;;5089850;28;19920;-61
2022/07/10 10:48:16;;;;;;;;;;;23.10;97.20;;;;;;5089578;28;19931;-60
2022/07/10 10:51:04;;;;;;;;;;;23.40;96.70;;;;;;5089955;28;19952;-60
2022/07/10 10:53:31;;;;;;;;;;;23.50;96.10;;;;;;5100259;28;19920;-62
2022/07/10 10:56:03;;;;;;;;;;;23.60;95.20;;;;;;5109894;28;19920;-61
2022/07/10 10:58:44;;;;;;;;;;;23.70;94.90;;;;;;5108621;28;19920;-60
2022/07/10 11:01:28;;;;;;;;;;;23.80;94.80;;;;;;5109790;28;19943;-60
2022/07/10 11:04:08;;;;;;;;;;;23.90;94.70;;;;;;5107932;28;19939;-58
2022/07/10 11:06:39;;;;;;;;;;;24.00;94.90;;;;;;5096532;28;19920;-59
2022/07/10 11:09:25;;;;;;;;;;;24.20;94.50;;;;;;5087937;28;19920;-60
2022/07/10 11:11:57;;;;;;;;;;;24.30;94.30;;;;;;5089116;28;19920;-58
2022/07/10 11:14:28;;;;;;;;;;;24.40;94.00;;;;;;5089128;28;19924;-60
2022/07/10 11:16:55;;;;;;;;;;;24.50;94.20;;;;;;5087630;28;19920;-59
2022/07/10 11:19:27;;;;;;;;;;;24.70;94.00;;;;;;5088703;28;19927;-59
2022/07/10 11:22:14;;;;;;;;;;;24.90;93.30;;;;;;5089469;28;19920;-56
2022/07/10 11:24:41;;;;;;;;;;;25.00;93.30;;;;;;5088934;28;19927;-56
2022/07/10 11:27:24;;;;;;;;;;;25.20;92.70;;;;;;5088393;28;20402;-56
2022/07/10 11:29:58;;;;;;;;;;;25.30;92.60;;;;;;5084252;28;20559;-56
2022/07/10 11:32:26;;;;;;;;;;;25.30;92.10;;;;;;5085598;28;19927;-56
2022/07/10 11:34:54;;;;;;;;;;;25.40;91.80;;;;;;5085014;28;19943;-60
2022/07/10 11:37:25;;;;;;;;;;;25.50;91.30;;;;;;5085327;28;20276;-60
2022/07/10 11:40:07;;;;;;;;;;;25.50;91.50;;;;;;5085777;28;20299;-59
2022/07/10 11:42:47;;;;;;;;;;;25.50;91.20;;;;;;5085299;28;19924;-56
2022/07/10 11:45:25;;;;;;;;;;;25.60;91.00;;;;;;5085628;28;20285;-57
2022/07/10 11:47:53;;;;;;;;;;;25.80;91.30;;;;;;5085269;28;19920;-61
2022/07/10 11:50:20;;;;;;;;;;;26.00;91.50;;;;;;5085508;28;19923;-56
2022/07/10 11:52:48;;;;;;;;;;;26.20;91.50;;;;;;5086210;28;19947;-60
2022/07/10 11:55:16;;;;;;;;;;;26.50;91.10;;;;;;5085539;28;19927;-62
2022/07/10 11:57:48;;;;;;;;;;;26.70;90.20;;;;;;5085230;28;19920;-60
2022/07/10 12:00:23;;;;;;;;;;;26.90;89.90;;;;;;5067482;28;20387;-59
2022/07/10 12:02:51;;;;;;;;;;;27.10;90.20;;;;;;5085326;28;19939;-61
2022/07/10 12:05:31;;;;;;;;;;;27.30;89.40;;;;;;5085358;28;19924;-59
2022/07/10 12:07:59;;;;;;;;;;;27.50;87.20;;;;;;5083515;28;19920;-58
2022/07/10 12:10:27;;;;;;;;;;;27.80;87.20;;;;;;5085078;28;20266;-61
2022/07/10 12:13:03;;;;;;;;;;;28.00;85.60;;;;;;5085268;28;19930;-60
2022/07/10 12:15:32;;;;;;;;;;;28.20;85.40;;;;;;5085097;28;19920;-60
2022/07/10 12:18:00;;;;;;;;;;;28.40;82.50;;;;;;5083809;28;19924;-57
2022/07/10 12:20:27;;;;;;;;;;;28.50;80.20;;;;;;5085604;28;19928;-64
2022/07/10 12:22:55;;;;;;;;;;;28.70;79.80;;;;;;5084216;28;20399;-61
2022/07/10 12:25:23;;;;;;;;;;;28.90;78.50;;;;;;5085170;28;20379;-59
2022/07/10 12:27:55;;;;;;;;;;;29.10;79.50;;;;;;5085093;28;20379;-58
2022/07/10 12:30:22;;;;;;;;;;;29.50;78.30;;;;;;5088706;28;20374;-60
2022/07/10 12:32:50;;;;;;;;;;;29.80;77.50;;;;;;5087760;28;20371;-59
2022/07/10 12:35:19;;;;;;;;;;;30.00;77.10;;;;;;5089343;28;20283;-59
2022/07/10 12:37:48;;;;;;;;;;;30.20;74.50;;;;;;5088969;28;19920;-61
2022/07/10 12:40:35;;;;;;;;;;;30.40;73.50;;;;;;5087394;28;20477;-59
2022/07/10 12:43:03;;;;;;;;;;;30.50;71.60;;;;;;5088971;28;19920;-58
2022/07/10 12:45:30;;;;;;;;;;;30.60;72.60;;;;;;5086569;28;20318;-60
2022/07/10 12:47:58;;;;;;;;;;;30.80;71.40;;;;;;5088297;28;19924;-58
2022/07/10 12:50:26;;;;;;;;;;;31.00;72.50;;;;;;5088532;28;19927;-56
2022/07/10 12:53:13;;;;;;;;;;;31.40;72.90;;;;;;5070679;28;20391;-58
2022/07/10 12:55:41;;;;;;;;;;;31.70;70.50;;;;;;5088233;28;20398;-60
2022/07/10 12:58:09;;;;;;;;;;;32.00;69.70;;;;;;5087011;28;19920;-59
2022/07/10 13:00:43;;;;;;;;;;;32.10;69.20;;;;;;5088202;28;19920;-58
2022/07/10 13:03:17;;;;;;;;;;;32.30;68.80;;;;;;5087826;28;20280;-60
2022/07/10 13:05:45;;;;;;;;;;;32.50;66.30;;;;;;5088461;28;19924;-61
2022/07/10 13:08:28;;;;;;;;;;;32.60;66.50;;;;;;5088127;28;19920;-61
2022/07/10 13:10:58;;;;;;;;;;;32.80;67.10;;;;;;5088988;28;19924;-60
2022/07/10 13:13:26;;;;;;;;;;;33.10;65.00;;;;;;5094508;28;19934;-59
2022/07/10 13:15:54;;;;;;;;;;;33.20;64.70;;;;;;5088354;28;19920;-59
2022/07/10 13:18:25;;;;;;;;;;;33.30;64.20;;;;;;5088237;28;20394;-59
2022/07/10 13:20:54;;;;;;;;;;;33.30;63.00;;;;;;5087914;28;19927;-60
2022/07/10 13:23:27;;;;;;;;;;;33.20;62.80;;;;;;5097166;28;20268;-60
2022/07/10 13:25:55;;;;;;;;;;;33.20;62.50;;;;;;5087760;28;19931;-61
2022/07/10 13:28:23;;;;;;;;;;;33.40;62.80;;;;;;5087508;28;20283;-60
2022/07/10 13:30:50;;;;;;;;;;;33.50;62.80;;;;;;5087747;28;19923;-60
2022/07/10 13:33:18;;;;;;;;;;;33.70;61.40;;;;;;5087566;28;19931;-60
2022/07/10 13:35:45;;;;;;;;;;;33.80;60.60;;;;;;5087781;28;20398;-59
2022/07/10 13:38:13;;;;;;;;;;;33.90;60.70;;;;;;5088487;28;19927;-60
2022/07/10 13:40:45;;;;;;;;;;;34.00;59.40;;;;;;5086452;28;19920;-61
2022/07/10 13:43:13;;;;;;;;;;;34.00;58.90;;;;;;5087396;28;19931;-60
2022/07/10 13:45:44;;;;;;;;;;;34.10;59.50;;;;;;5087840;28;20398;-60
2022/07/10 13:48:12;;;;;;;;;;;34.10;56.90;;;;;;5088326;28;19927;-60
2022/07/10 13:50:43;;;;;;;;;;;34.10;57.80;;;;;;5087717;28;20399;-60
2022/07/10 13:53:11;;;;;;;;;;;34.20;56.60;;;;;;5088016;28;19923;-59
2022/07/10 13:55:39;;;;;;;;;;;34.20;57.90;;;;;;5087457;28;19927;-59
2022/07/10 13:58:07;;;;;;;;;;;34.50;58.00;;;;;;5087977;28;20367;-56
2022/07/10 14:00:34;;;;;;;;;;;34.60;58.10;;;;;;5086889;28;20366;-59
2022/07/10 14:03:02;;;;;;;;;;;34.70;55.80;;;;;;5087092;28;20085;-57
2022/07/10 14:05:30;;;;;;;;;;;34.80;56.40;;;;;;5086982;28;19920;-57
2022/07/10 14:07:57;;;;;;;;;;;34.90;55.20;;;;;;5086694;28;20323;-58
2022/07/10 14:10:25;;;;;;;;;;;34.90;55.40;;;;;;5086554;28;20299;-58
2022/07/10 14:12:53;;;;;;;;;;;34.80;54.80;;;;;;5087248;28;19927;-57
2022/07/10 14:15:21;;;;;;;;;;;34.80;55.50;;;;;;5087010;28;20038;-57
2022/07/10 14:17:50;;;;;;;;;;;35.00;55.20;;;;;;5086963;28;19924;-56
2022/07/10 14:20:17;;;;;;;;;;;35.00;55.40;;;;;;5087246;28;19924;-56
2022/07/10 14:22:46;;;;;;;;;;;35.10;54.40;;;;;;5086852;28;19924;-57
2022/07/10 14:25:14;;;;;;;;;;;35.30;54.60;;;;;;5086162;28;19927;-56
2022/07/10 14:27:41;;;;;;;;;;;35.40;53.50;;;;;;5087290;28;19927;-57
2022/07/10 14:30:09;;;;;;;;;;;35.50;54.00;;;;;;5086733;28;19924;-57
2022/07/10 14:32:37;;;;;;;;;;;35.70;53.70;;;;;;5086414;28;19928;-57
2022/07/10 14:35:04;;;;;;;;;;;35.70;52.60;;;;;;5086513;28;19919;-58
2022/07/10 14:37:32;;;;;;;;;;;35.50;51.30;;;;;;5086731;28;19931;-56